Time;durP1;ratioP1;P1;durP2;ratioP2;P2;SDS_P1;SDS_P2;PMS_P1;PMS_P2;Temp;Humidity;BMP_temperature;BMP_pressure;BME280_temperature;BME280_humidity;BME280_pressure;Samples;Min_cycle;Max_cycle;Signal;HPM_P1;HPM_P2
2023/09/09 00:00:56;;;;;;;;;;;;;;;;;;5110346;28;19908;-73
2023/09/09 00:07:31;;;;;;;;;;;;;;;;;;5091633;27;19922;-73
2023/09/09 00:12:55;;;;;;;;;;;;;;;;;;5111427;27;19923;-72
2023/09/09 00:16:00;;;;;;;;;;;;;;;;;;5112179;27;19916;-73
2023/09/09 00:18:26;;;;;;;;;;;;;;;;;;5111730;28;20451;-73
2023/09/09 00:21:49;;;;;;;;;;;;;;;;;;5091774;28;19923;-72
2023/09/09 00:24:15;;;;;;;;;;;;;;;;;;5091628;28;19935;-72
2023/09/09 00:26:41;;;;;;;;;;;;;;;;;;5091049;28;20412;-72
2023/09/09 00:32:15;;;;;;;;;;;;;;;;;;5091398;27;19913;-72
2023/09/09 00:34:41;;;;;;;;;;;;;;;;;;5089645;28;20333;-72
2023/09/09 00:37:07;;;;;;;;;;;;;;;;;;5091326;28;19947;-72
2023/09/09 00:43:44;;;;;;;;;;;;;;;;;;5091631;27;20300;-72
2023/09/09 00:47:27;;;;;;;;;;;;;;;;;;5111702;27;19916;-73
2023/09/09 00:50:35;;;;;;;;;;;;;;;;;;5092202;28;19916;-73
2023/09/09 00:53:29;;;;;;;;;;;;;;;;;;5091501;27;19916;-73
2023/09/09 00:55:55;;;;;;;;;;;;;;;;;;5090940;28;20003;-72
2023/09/09 01:00:27;;;;;;;;;;;;;;;;;;5091881;27;19919;-73
2023/09/09 01:04:59;;;;;;;;;;;;;;;;;;5091513;28;19923;-72
2023/09/09 01:07:25;;;;;;;;;;;;;;;;;;5091432;28;19965;-72
2023/09/09 01:11:36;;;;;;;;;;;;;;;;;;5112522;27;20361;-73
2023/09/09 01:15:04;;;;;;;;;;;;;;;;;;5112036;27;19916;-73
2023/09/09 01:17:30;;;;;;;;;;;;;;;;;;5111650;28;20437;-73
2023/09/09 01:19:57;;;;;;;;;;;;;;;;;;5111723;28;19908;-73
2023/09/09 01:24:44;;;;;;;;;;;;;;;;;;5112254;27;19926;-73
2023/09/09 01:27:10;;;;;;;;;;;;;;;;;;5111640;28;19912;-72
2023/09/09 01:29:36;;;;;;;;;;;;;;;;;;5111137;28;19953;-73
2023/09/09 01:32:02;;;;;;;;;;;;;;;;;;5110252;28;19908;-73
2023/09/09 01:34:28;;;;;;;;;;;;;;;;;;5111504;28;19934;-72
2023/09/09 01:36:54;;;;;;;;;;;;;;;;;;5111004;28;19908;-74
2023/09/09 01:39:20;;;;;;;;;;;;;;;;;;5111681;28;19935;-72
2023/09/09 01:44:03;;;;;;;;;;;;;;;;;;5111469;27;19923;-73
2023/09/09 01:46:29;;;;;;;;;;;;;;;;;;5111652;28;19912;-74
2023/09/09 01:48:55;;;;;;;;;;;;;;;;;;5111613;28;19961;-73
2023/09/09 01:51:21;;;;;;;;;;;;;;;;;;5111348;28;19990;-73
2023/09/09 01:53:46;;;;;;;;;;;;;;;;;;5111669;28;20003;-73
2023/09/09 02:01:48;;;;;;;;;;;;;;;;;;5111907;27;19916;-73
2023/09/09 02:04:14;;;;;;;;;;;;;;;;;;5111580;28;19976;-73
2023/09/09 02:06:40;;;;;;;;;;;;;;;;;;5111618;28;19977;-73
2023/09/09 02:09:07;;;;;;;;;;;;;;;;;;5110312;28;19908;-72
2023/09/09 02:11:33;;;;;;;;;;;;;;;;;;5111213;28;20355;-73
2023/09/09 02:19:46;;;;;;;;;;;;;;;;;;5111641;27;20394;-72
2023/09/09 02:24:02;;;;;;;;;;;;;;;;;;5092188;28;19917;-73
2023/09/09 02:26:28;;;;;;;;;;;;;;;;;;5090972;28;20006;-73
2023/09/09 02:32:21;;;;;;;;;;;;;;;;;;5111504;27;19916;-74
2023/09/09 02:36:56;;;;;;;;;;;;;;;;;;5112351;27;19912;-72
2023/09/09 02:39:22;;;;;;;;;;;;;;;;;;5111365;28;20007;-73
2023/09/09 02:43:57;;;;;;;;;;;;;;;;;;5091534;27;20406;-72
2023/09/09 02:46:23;;;;;;;;;;;;;;;;;;5089617;28;20003;-72
2023/09/09 02:48:49;;;;;;;;;;;;;;;;;;5091261;28;19916;-72
2023/09/09 02:51:15;;;;;;;;;;;;;;;;;;5091193;28;19970;-72
2023/09/09 02:53:41;;;;;;;;;;;;;;;;;;5089745;28;20365;-72
2023/09/09 02:56:06;;;;;;;;;;;;;;;;;;5091295;28;20365;-72
2023/09/09 02:58:33;;;;;;;;;;;;;;;;;;5089754;28;19908;-72
2023/09/09 03:01:43;;;;;;;;;;;;;;;;;;5091324;28;20403;-73
2023/09/09 03:05:51;;;;;;;;;;;;;;;;;;5111878;27;19916;-72
2023/09/09 03:11:21;;;;;;;;;;;;;;;;;;5111772;27;19916;-72
2023/09/09 03:13:47;;;;;;;;;;;;;;;;;;5111575;28;20006;-72
2023/09/09 03:17:30;;;;;;;;;;;;;;;;;;5111682;27;19918;-72
2023/09/09 03:20:55;;;;;;;;;;;;;;;;;;5111998;27;19916;-72
2023/09/09 03:23:21;;;;;;;;;;;;;;;;;;5111194;28;19912;-72
2023/09/09 03:28:15;;;;;;;;;;;;;;;;;;5112240;27;20295;-72
2023/09/09 03:30:41;;;;;;;;;;;;;;;;;;5111244;28;20003;-72
2023/09/09 03:33:07;;;;;;;;;;;;;;;;;;5111664;28;20274;-72
2023/09/09 03:37:08;;;;;;;;;;;;;;;;;;5152474;27;20006;-72
2023/09/09 03:39:34;;;;;;;;;;;;;;;;;;5153199;27;19942;-72
2023/09/09 03:42:19;;;;;;;;;;;;;;;;;;5112575;27;20348;-73
2023/09/09 03:44:45;;;;;;;;;;;;;;;;;;5111307;28;20006;-72
2023/09/09 03:47:11;;;;;;;;;;;;;;;;;;5111710;28;20413;-72
2023/09/09 03:52:32;;;;;;;;;;;;;;;;;;5091779;27;19923;-72
2023/09/09 03:54:58;;;;;;;;;;;;;;;;;;5091476;28;19995;-72
2023/09/09 04:01:07;;;;;;;;;;;;;;;;;;5112244;27;19916;-72
2023/09/09 04:03:34;;;;;;;;;;;;;;;;;;5111676;28;20455;-72
2023/09/09 04:06:44;;;;;;;;;;;;;;;;;;5112466;27;19916;-72
2023/09/09 04:10:56;;;;;;;;;;;;;;;;;;5111666;27;19916;-72
2023/09/09 04:13:22;;;;;;;;;;;;;;;;;;5111709;28;19999;-72
2023/09/09 04:15:48;;;;;;;;;;;;;;;;;;5111595;28;20269;-73
2023/09/09 04:18:59;;;;;;;;;;;;;;;;;;5071042;28;19916;-72
2023/09/09 04:21:25;;;;;;;;;;;;;;;;;;5071150;28;20398;-72
2023/09/09 04:25:49;;;;;;;;;;;;;;;;;;5111692;27;19916;-72
2023/09/09 04:28:15;;;;;;;;;;;;;;;;;;5111699;28;19998;-72
2023/09/09 04:30:41;;;;;;;;;;;;;;;;;;5111607;28;19961;-72
2023/09/09 04:33:07;;;;;;;;;;;;;;;;;;5111205;28;20004;-72
2023/09/09 04:35:33;;;;;;;;;;;;;;;;;;5111472;28;20322;-72
2023/09/09 04:37:59;;;;;;;;;;;;;;;;;;5111605;28;19912;-72
2023/09/09 04:40:25;;;;;;;;;;;;;;;;;;5110994;28;19908;-72
2023/09/09 04:42:51;;;;;;;;;;;;;;;;;;5111394;28;19961;-72
2023/09/09 04:49:39;;;;;;;;;;;;;;;;;;5132496;27;20026;-72
2023/09/09 04:52:05;;;;;;;;;;;;;;;;;;5132218;27;20446;-73
2023/09/09 04:54:31;;;;;;;;;;;;;;;;;;5131750;28;20003;-73
2023/09/09 04:57:20;;;;;;;;;;;;;;;;;;5112255;27;20019;-72
2023/09/09 04:59:46;;;;;;;;;;;;;;;;;;5111602;28;19947;-72
2023/09/09 05:04:21;;;;;;;;;;;;;;;;;;5112184;27;20392;-72
2023/09/09 05:06:47;;;;;;;;;;;;;;;;;;5111635;28;20010;-72
2023/09/09 05:11:39;;;;;;;;;;;;;;;;;;5091471;27;19923;-72
2023/09/09 05:14:56;;;;;;;;;;;;;;;;;;5090972;27;19923;-72
2023/09/09 05:18:20;;;;;;;;;;;;;;;;;;5153362;27;20357;-73
2023/09/09 05:20:46;;;;;;;;;;;;;;;;;;5152905;27;19946;-72
2023/09/09 05:24:27;;;;;;;;;;;;;;;;;;5092076;28;19917;-72
2023/09/09 05:26:53;;;;;;;;;;;;;;;;;;5091353;28;19995;-72
2023/09/09 05:29:19;;;;;;;;;;;;;;;;;;5091058;28;20268;-73
2023/09/09 05:31:45;;;;;;;;;;;;;;;;;;5090035;28;20287;-72
2023/09/09 05:35:34;;;;;;;;;;;;;;;;;;5091070;27;20300;-72
2023/09/09 05:38:59;;;;;;;;;;;;;;;;;;5111884;27;19922;-73
2023/09/09 05:41:25;;;;;;;;;;;;;;;;;;5111700;28;19912;-72
2023/09/09 05:43:51;;;;;;;;;;;;;;;;;;5111261;28;19908;-73
2023/09/09 05:46:17;;;;;;;;;;;;;;;;;;5111588;28;19916;-73
2023/09/09 05:48:43;;;;;;;;;;;;;;;;;;5111613;28;20291;-73
2023/09/09 05:53:46;;;;;;;;;;;;;;;;;;5111830;27;19916;-73
2023/09/09 05:56:12;;;;;;;;;;;;;;;;;;5111692;28;20007;-73
2023/09/09 06:01:10;;;;;;;;;;;;;;;;;;5112334;27;19916;-72
2023/09/09 06:08:40;;;;;;;;;;;;;;;;;;5111907;27;19923;-72
2023/09/09 06:11:06;;;;;;;;;;;;;;;;;;5111203;28;20010;-73
2023/09/09 06:16:05;;;;;;;;;;;;;;;;;;5091995;27;19916;-74
2023/09/09 06:21:21;;;;;;;;;;;;;;;;;;5112115;27;19916;-72
2023/09/09 06:23:47;;;;;;;;;;;;;;;;;;5111631;28;19979;-72
2023/09/09 06:27:48;;;;;;;;;;;;;;;;;;5092166;27;19917;-72
2023/09/09 06:30:14;;;;;;;;;;;;;;;;;;5090089;28;19919;-73
2023/09/09 06:35:48;;;;;;;;;;;;;;;;;;5091625;27;19916;-73
2023/09/09 06:40:17;;;;;;;;;;;;;;;;;;5111439;27;19916;-72
2023/09/09 06:42:43;;;;;;;;;;;;;;;;;;5111623;28;19919;-72
2023/09/09 06:50:11;;;;;;;;;;;;;;;;;;5112002;27;19916;-72
2023/09/09 06:52:38;;;;;;;;;;;;;;;;;;5111272;28;20351;-73
2023/09/09 06:57:25;;;;;;;;;;;;;;;;;;5112199;27;19916;-73
2023/09/09 06:59:51;;;;;;;;;;;;;;;;;;5109971;28;20054;-73
2023/09/09 07:02:56;;;;;;;;;;;;;;;;;;5091467;27;19916;-72
2023/09/09 07:05:22;;;;;;;;;;;;;;;;;;5091330;28;19999;-73
2023/09/09 07:10:14;;;;;;;;;;;;;;;;;;5112513;27;19923;-72
2023/09/09 07:13:24;;;;;;;;;;;;;;;;;;5092067;27;19922;-72
2023/09/09 07:18:29;;;;;;;;;;;;;;;;;;5112360;27;19922;-73
2023/09/09 07:21:03;;;;;;;;;;;;;;;;;;5111434;27;19916;-72
2023/09/09 07:23:30;;;;;;;;;;;;;;;;;;5111707;28;19918;-72
2023/09/09 07:25:56;;;;;;;;;;;;;;;;;;5111618;28;19947;-72
2023/09/09 07:28:25;;;;;;;;;;;;;;;;;;5111200;28;20331;-72
2023/09/09 07:30:53;;;;;;;;;;;;;;;;;;5112009;28;19919;-72
2023/09/09 07:33:19;;;;;;;;;;;;;;;;;;5111580;28;19912;-72
2023/09/09 07:35:45;;;;;;;;;;;;;;;;;;5111036;28;19908;-72
2023/09/09 07:40:46;;;;;;;;;;;;;;;;;;5091758;28;19923;-73
2023/09/09 07:43:40;;;;;;;;;;;;;;;;;;5111325;27;20294;-73
2023/09/09 07:46:33;;;;;;;;;;;;;;;;;;5091951;27;19917;-73
2023/09/09 07:48:59;;;;;;;;;;;;;;;;;;5091396;28;19999;-73
2023/09/09 07:53:20;;;;;;;;;;;;;;;;;;5112152;27;20303;-73
2023/09/09 07:55:46;;;;;;;;;;;;;;;;;;5112105;28;19912;-73
2023/09/09 07:58:12;;;;;;;;;;;;;;;;;;5111328;28;19931;-73
2023/09/09 08:02:32;;;;;;;;;;;;;;;;;;5091659;27;19919;-72
2023/09/09 08:05:48;;;;;;;;;;;;;;;;;;5111883;27;19922;-72
2023/09/09 08:10:41;;;;;;;;;;;;;;;;;;5091411;27;19920;-72
2023/09/09 08:14:23;;;;;;;;;;;;;;;;;;5112118;27;19916;-72
2023/09/09 08:16:49;;;;;;;;;;;;;;;;;;5111644;28;20324;-72
2023/09/09 08:19:16;;;;;;;;;;;;;;;;;;5111188;28;19908;-72
2023/09/09 08:21:41;;;;;;;;;;;;;;;;;;5111604;28;19908;-72
2023/09/09 08:24:07;;;;;;;;;;;;;;;;;;5111224;28;19908;-72
2023/09/09 08:33:06;;;;;;;;;;;;;;;;;;5091039;27;19922;-72
2023/09/09 08:35:32;;;;;;;;;;;;;;;;;;5091413;28;19958;-72
2023/09/09 08:37:59;;;;;;;;;;;;;;;;;;5091374;28;19909;-72
2023/09/09 08:40:25;;;;;;;;;;;;;;;;;;5089676;28;20348;-74
2023/09/09 08:42:51;;;;;;;;;;;;;;;;;;5091444;28;19952;-73
2023/09/09 08:45:17;;;;;;;;;;;;;;;;;;5090759;28;19935;-73
2023/09/09 08:47:43;;;;;;;;;;;;;;;;;;5091367;28;19912;-73
2023/09/09 08:50:08;;;;;;;;;;;;;;;;;;5089714;28;20376;-73
2023/09/09 08:52:34;;;;;;;;;;;;;;;;;;5090651;28;20369;-73
2023/09/09 08:55:00;;;;;;;;;;;;;;;;;;5089861;28;20318;-73
2023/09/09 08:57:28;;;;;;;;;;;;;;;;;;5090968;28;19920;-73
2023/09/09 08:59:54;;;;;;;;;;;;;;;;;;5090494;28;19960;-73
2023/09/09 09:02:20;;;;;;;;;;;;;;;;;;5090864;28;19956;-73
2023/09/09 09:06:50;;;;;;;;;;;;;;;;;;5111542;27;19922;-72
2023/09/09 09:09:16;;;;;;;;;;;;;;;;;;5110365;28;20006;-72
2023/09/09 09:11:42;;;;;;;;;;;;;;;;;;5111511;28;19908;-72
2023/09/09 09:15:16;;;;;;;;;;;;;;;;;;5091031;27;19923;-73
2023/09/09 09:17:43;;;;;;;;;;;;;;;;;;5091228;28;20355;-73
2023/09/09 09:20:10;;;;;;;;;;;;;;;;;;5091294;28;20322;-73
2023/09/09 09:22:37;;;;;;;;;;;;;;;;;;5090760;28;20387;-73
2023/09/09 09:25:03;;;;;;;;;;;;;;;;;;5091226;28;19913;-73
2023/09/09 09:27:29;;;;;;;;;;;;;;;;;;5090690;28;19908;-73
2023/09/09 09:29:55;;;;;;;;;;;;;;;;;;5091054;28;19908;-74
2023/09/09 09:32:21;;;;;;;;;;;;;;;;;;5090971;28;19908;-73
2023/09/09 09:34:49;;;;;;;;;;;;;;;;;;5090538;28;19917;-74
2023/09/09 09:37:18;;;;;;;;;;;;;;;;;;5091232;28;19950;-73
2023/09/09 09:39:44;;;;;;;;;;;;;;;;;;5090962;28;20002;-73
2023/09/09 09:42:09;;;;;;;;;;;;;;;;;;5090570;28;19978;-73
2023/09/09 09:44:35;;;;;;;;;;;;;;;;;;5091042;28;19918;-73
2023/09/09 09:47:01;;;;;;;;;;;;;;;;;;5089510;28;19915;-73
2023/09/09 09:49:27;;;;;;;;;;;;;;;;;;5090505;28;19954;-72
2023/09/09 09:51:53;;;;;;;;;;;;;;;;;;5090766;28;19908;-73
2023/09/09 09:54:19;;;;;;;;;;;;;;;;;;5089210;28;19916;-73
2023/09/09 09:56:45;;;;;;;;;;;;;;;;;;5090061;28;19916;-73
2023/09/09 09:59:11;;;;;;;;;;;;;;;;;;5090490;28;19931;-74
2023/09/09 10:01:37;;;;;;;;;;;;;;;;;;5089293;28;19908;-73
2023/09/09 10:04:03;;;;;;;;;;;;;;;;;;5090099;28;19920;-73
2023/09/09 10:06:30;;;;;;;;;;;;;;;;;;5090525;28;19947;-73
2023/09/09 10:08:56;;;;;;;;;;;;;;;;;;5090364;28;20256;-73
2023/09/09 10:11:22;;;;;;;;;;;;;;;;;;5089967;28;19954;-73
2023/09/09 10:13:48;;;;;;;;;;;;;;;;;;5098464;28;20318;-72
2023/09/09 10:16:14;;;;;;;;;;;;;;;;;;5110589;28;19908;-73
2023/09/09 10:18:40;;;;;;;;;;;;;;;;;;5091907;28;20272;-72
2023/09/09 10:21:06;;;;;;;;;;;;;;;;;;5110462;28;20383;-73
2023/09/09 10:23:32;;;;;;;;;;;;;;;;;;5110090;28;20346;-73
2023/09/09 10:25:59;;;;;;;;;;;;;;;;;;5100861;28;20306;-73
2023/09/09 10:28:24;;;;;;;;;;;;;;;;;;5096857;28;20257;-73
2023/09/09 10:30:50;;;;;;;;;;;;;;;;;;5096363;28;19908;-73
2023/09/09 10:33:16;;;;;;;;;;;;;;;;;;5096436;28;19955;-72
2023/09/09 10:35:42;;;;;;;;;;;;;;;;;;5096530;28;19920;-72
2023/09/09 10:38:08;;;;;;;;;;;;;;;;;;5096237;28;19908;-73
2023/09/09 10:40:34;;;;;;;;;;;;;;;;;;5096657;28;19961;-73
2023/09/09 10:43:00;;;;;;;;;;;;;;;;;;5096540;28;19958;-73
2023/09/09 10:45:28;;;;;;;;;;;;;;;;;;5096199;28;19912;-73
2023/09/09 10:47:54;;;;;;;;;;;;;;;;;;5096389;28;19908;-73
2023/09/09 10:50:20;;;;;;;;;;;;;;;;;;5096361;28;19969;-73
2023/09/09 10:52:46;;;;;;;;;;;;;;;;;;5095884;28;19912;-72
2023/09/09 10:55:12;;;;;;;;;;;;;;;;;;5096680;28;20272;-73
2023/09/09 10:57:38;;;;;;;;;;;;;;;;;;5096220;28;19958;-73
2023/09/09 11:00:05;;;;;;;;;;;;;;;;;;5095759;28;20359;-73
2023/09/09 11:02:31;;;;;;;;;;;;;;;;;;5078054;28;19908;-73
2023/09/09 11:04:57;;;;;;;;;;;;;;;;;;5096092;28;20339;-73
2023/09/09 11:07:23;;;;;;;;;;;;;;;;;;5095607;28;20280;-74
2023/09/09 11:09:49;;;;;;;;;;;;;;;;;;5095951;28;19930;-73
2023/09/09 11:12:15;;;;;;;;;;;;;;;;;;5077847;28;19915;-73
2023/09/09 11:14:41;;;;;;;;;;;;;;;;;;5095328;28;20357;-73
2023/09/09 11:17:07;;;;;;;;;;;;;;;;;;5095871;28;19908;-73
2023/09/09 11:19:33;;;;;;;;;;;;;;;;;;5077683;28;20368;-73
2023/09/09 11:21:59;;;;;;;;;;;;;;;;;;5095428;28;20387;-73
2023/09/09 11:24:25;;;;;;;;;;;;;;;;;;5095726;28;19912;-73
2023/09/09 11:26:51;;;;;;;;;;;;;;;;;;5095225;28;19908;-73
2023/09/09 11:29:17;;;;;;;;;;;;;;;;;;5095664;28;19912;-73
2023/09/09 11:31:43;;;;;;;;;;;;;;;;;;5095872;28;19908;-73
2023/09/09 11:34:09;;;;;;;;;;;;;;;;;;5095038;28;20398;-73
2023/09/09 11:36:34;;;;;;;;;;;;;;;;;;5094573;28;20050;-73
2023/09/09 11:39:00;;;;;;;;;;;;;;;;;;5095363;28;19909;-74
2023/09/09 11:41:27;;;;;;;;;;;;;;;;;;5095036;28;19919;-73
2023/09/09 11:43:53;;;;;;;;;;;;;;;;;;5077499;28;20267;-73
2023/09/09 11:46:19;;;;;;;;;;;;;;;;;;5095293;28;19909;-74
2023/09/09 11:48:45;;;;;;;;;;;;;;;;;;5095129;28;19955;-73
2023/09/09 11:51:11;;;;;;;;;;;;;;;;;;5095490;28;19989;-74
2023/09/09 11:53:37;;;;;;;;;;;;;;;;;;5095075;28;19920;-74
2023/09/09 11:56:03;;;;;;;;;;;;;;;;;;5095006;28;19908;-74
2023/09/09 11:58:29;;;;;;;;;;;;;;;;;;5095032;28;19937;-74
2023/09/09 12:00:55;;;;;;;;;;;;;;;;;;5095071;28;20341;-73
2023/09/09 12:03:21;;;;;;;;;;;;;;;;;;5094540;28;20430;-74
2023/09/09 12:05:46;;;;;;;;;;;;;;;;;;5095285;28;20372;-74
2023/09/09 12:08:13;;;;;;;;;;;;;;;;;;5094970;28;20350;-71
2023/09/09 12:10:39;;;;;;;;;;;;;;;;;;5094403;28;20384;-72
2023/09/09 12:13:05;;;;;;;;;;;;;;;;;;5094515;28;19908;-72
2023/09/09 12:15:31;;;;;;;;;;;;;;;;;;5094743;28;19908;-72
2023/09/09 12:17:57;;;;;;;;;;;;;;;;;;5094228;28;19912;-73
2023/09/09 12:20:22;;;;;;;;;;;;;;;;;;5094723;28;20364;-72
2023/09/09 12:22:51;;;;;;;;;;;;;;;;;;5076363;28;20359;-72
2023/09/09 12:25:17;;;;;;;;;;;;;;;;;;5094109;28;19912;-72
2023/09/09 12:27:43;;;;;;;;;;;;;;;;;;5094376;28;19930;-72
2023/09/09 12:30:08;;;;;;;;;;;;;;;;;;5094025;28;19923;-72
2023/09/09 12:32:34;;;;;;;;;;;;;;;;;;5094349;28;19908;-72
2023/09/09 12:35:00;;;;;;;;;;;;;;;;;;5094226;28;20295;-72
2023/09/09 12:37:26;;;;;;;;;;;;;;;;;;5093915;28;20316;-73
2023/09/09 12:39:52;;;;;;;;;;;;;;;;;;5094343;28;20257;-73
2023/09/09 12:42:18;;;;;;;;;;;;;;;;;;5094258;28;20283;-73
2023/09/09 12:44:44;;;;;;;;;;;;;;;;;;5075586;28;19908;-73
2023/09/09 12:47:10;;;;;;;;;;;;;;;;;;5094095;28;19977;-73
2023/09/09 12:49:36;;;;;;;;;;;;;;;;;;5093927;28;20330;-73
2023/09/09 12:52:02;;;;;;;;;;;;;;;;;;5093781;28;20275;-73
2023/09/09 12:54:28;;;;;;;;;;;;;;;;;;5094007;28;19959;-73
2023/09/09 12:56:54;;;;;;;;;;;;;;;;;;5075983;28;20018;-73
2023/09/09 12:59:20;;;;;;;;;;;;;;;;;;5093589;28;19978;-73
2023/09/09 13:01:45;;;;;;;;;;;;;;;;;;5093973;28;20002;-72
2023/09/09 13:04:11;;;;;;;;;;;;;;;;;;5093983;28;19908;-73
2023/09/09 13:06:37;;;;;;;;;;;;;;;;;;5093516;28;19943;-72
2023/09/09 13:09:03;;;;;;;;;;;;;;;;;;5094163;28;19912;-73
2023/09/09 13:11:29;;;;;;;;;;;;;;;;;;5094151;28;19908;-73
2023/09/09 13:13:55;;;;;;;;;;;;;;;;;;5093276;28;19920;-73
2023/09/09 13:16:21;;;;;;;;;;;;;;;;;;5093923;28;20290;-73
2023/09/09 13:18:47;;;;;;;;;;;;;;;;;;5093947;28;19943;-73
2023/09/09 13:21:13;;;;;;;;;;;;;;;;;;5075347;28;20433;-72
2023/09/09 13:23:39;;;;;;;;;;;;;;;;;;5093713;28;19909;-72
2023/09/09 13:26:05;;;;;;;;;;;;;;;;;;5093614;28;19952;-72
2023/09/09 13:28:31;;;;;;;;;;;;;;;;;;5093286;28;19912;-73
2023/09/09 13:30:57;;;;;;;;;;;;;;;;;;5093685;28;19994;-72
2023/09/09 13:33:23;;;;;;;;;;;;;;;;;;5093583;28;19916;-72
2023/09/09 13:35:49;;;;;;;;;;;;;;;;;;5093664;28;19973;-73
2023/09/09 13:38:15;;;;;;;;;;;;;;;;;;5075401;28;19912;-73
2023/09/09 13:40:41;;;;;;;;;;;;;;;;;;5093260;28;19950;-73
2023/09/09 13:43:07;;;;;;;;;;;;;;;;;;5093592;28;19912;-72
2023/09/09 13:45:33;;;;;;;;;;;;;;;;;;5093620;28;19908;-73
2023/09/09 13:47:59;;;;;;;;;;;;;;;;;;5075065;28;20364;-74
2023/09/09 13:50:25;;;;;;;;;;;;;;;;;;5093492;28;20283;-74
2023/09/09 13:52:51;;;;;;;;;;;;;;;;;;5093565;28;19908;-73
2023/09/09 13:55:17;;;;;;;;;;;;;;;;;;5093097;28;20375;-73
2023/09/09 13:57:43;;;;;;;;;;;;;;;;;;5093460;28;19908;-74
2023/09/09 14:00:09;;;;;;;;;;;;;;;;;;5094294;28;19908;-73
2023/09/09 14:02:35;;;;;;;;;;;;;;;;;;5096870;28;20385;-73
2023/09/09 14:05:01;;;;;;;;;;;;;;;;;;5097197;28;19931;-73
2023/09/09 14:07:27;;;;;;;;;;;;;;;;;;5097249;28;20364;-73
2023/09/09 14:09:52;;;;;;;;;;;;;;;;;;5096712;28;19908;-73
2023/09/09 14:12:18;;;;;;;;;;;;;;;;;;5097065;28;19908;-73
2023/09/09 14:14:44;;;;;;;;;;;;;;;;;;5078542;28;19920;-73
2023/09/09 14:17:10;;;;;;;;;;;;;;;;;;5096564;28;19908;-73
2023/09/09 14:19:37;;;;;;;;;;;;;;;;;;5096915;28;19995;-73
2023/09/09 14:22:03;;;;;;;;;;;;;;;;;;5096875;28;19912;-73
2023/09/09 14:24:29;;;;;;;;;;;;;;;;;;5096472;28;19908;-72
2023/09/09 14:26:55;;;;;;;;;;;;;;;;;;5096767;28;20003;-72
2023/09/09 14:29:21;;;;;;;;;;;;;;;;;;5096678;28;19915;-72
2023/09/09 14:31:47;;;;;;;;;;;;;;;;;;5096545;28;19915;-73
2023/09/09 14:34:13;;;;;;;;;;;;;;;;;;5096632;28;19959;-74
2023/09/09 14:36:39;;;;;;;;;;;;;;;;;;5096699;28;19936;-74
2023/09/09 14:39:05;;;;;;;;;;;;;;;;;;5096207;28;19908;-73
2023/09/09 14:41:31;;;;;;;;;;;;;;;;;;5096596;28;19939;-73
2023/09/09 14:43:57;;;;;;;;;;;;;;;;;;5096105;28;19914;-74
2023/09/09 14:46:25;;;;;;;;;;;;;;;;;;5096526;28;19915;-74
2023/09/09 14:48:51;;;;;;;;;;;;;;;;;;5096441;28;19915;-74
2023/09/09 14:51:17;;;;;;;;;;;;;;;;;;5095949;28;19908;-74
2023/09/09 14:53:43;;;;;;;;;;;;;;;;;;5096277;28;19912;-74
2023/09/09 14:56:09;;;;;;;;;;;;;;;;;;5096350;28;20034;-74
2023/09/09 14:58:35;;;;;;;;;;;;;;;;;;5095794;28;19908;-74
2023/09/09 15:01:00;;;;;;;;;;;;;;;;;;5096134;28;19915;-74
2023/09/09 15:03:26;;;;;;;;;;;;;;;;;;5077988;28;20045;-74
2023/09/09 15:05:52;;;;;;;;;;;;;;;;;;5095805;28;19908;-74
2023/09/09 15:08:19;;;;;;;;;;;;;;;;;;5077935;28;19908;-73
2023/09/09 15:10:45;;;;;;;;;;;;;;;;;;5095841;28;19931;-74
2023/09/09 15:13:11;;;;;;;;;;;;;;;;;;5095426;28;20361;-74
2023/09/09 15:15:37;;;;;;;;;;;;;;;;;;5096272;28;20448;-74
2023/09/09 15:18:05;;;;;;;;;;;;;;;;;;5096364;28;19912;-74
2023/09/09 15:20:31;;;;;;;;;;;;;;;;;;5095455;28;19931;-74
2023/09/09 15:22:56;;;;;;;;;;;;;;;;;;5096346;28;20364;-74
2023/09/09 15:25:22;;;;;;;;;;;;;;;;;;5077549;28;19912;-74
2023/09/09 15:27:48;;;;;;;;;;;;;;;;;;5095317;28;19909;-74
2023/09/09 15:30:14;;;;;;;;;;;;;;;;;;5095612;28;19965;-74
2023/09/09 15:32:40;;;;;;;;;;;;;;;;;;5077645;28;19953;-74
2023/09/09 15:35:07;;;;;;;;;;;;;;;;;;5095050;28;20008;-74
2023/09/09 15:37:32;;;;;;;;;;;;;;;;;;5095360;28;19991;-73
2023/09/09 15:39:58;;;;;;;;;;;;;;;;;;5095402;28;19982;-74
2023/09/09 15:42:24;;;;;;;;;;;;;;;;;;5095522;28;19908;-74
2023/09/09 15:44:50;;;;;;;;;;;;;;;;;;5095451;28;19912;-74
2023/09/09 15:47:16;;;;;;;;;;;;;;;;;;5076931;28;19955;-74
2023/09/09 15:49:42;;;;;;;;;;;;;;;;;;5095306;28;19927;-73
2023/09/09 15:52:08;;;;;;;;;;;;;;;;;;5095342;28;19908;-74
2023/09/09 15:54:34;;;;;;;;;;;;;;;;;;5094805;28;19920;-74
2023/09/09 15:57:00;;;;;;;;;;;;;;;;;;5095116;28;19909;-73
2023/09/09 15:59:26;;;;;;;;;;;;;;;;;;5095283;28;19912;-74
2023/09/09 16:01:53;;;;;;;;;;;;;;;;;;5076638;28;19956;-74
2023/09/09 16:04:19;;;;;;;;;;;;;;;;;;5095006;28;19912;-74
2023/09/09 16:06:45;;;;;;;;;;;;;;;;;;5094907;28;19915;-74
2023/09/09 16:09:11;;;;;;;;;;;;;;;;;;5094463;28;19909;-74
2023/09/09 16:11:37;;;;;;;;;;;;;;;;;;5094765;28;20049;-74
2023/09/09 16:14:03;;;;;;;;;;;;;;;;;;5094510;28;19920;-74
2023/09/09 16:16:29;;;;;;;;;;;;;;;;;;5094369;28;19951;-73
2023/09/09 16:18:55;;;;;;;;;;;;;;;;;;5076480;28;19946;-74
2023/09/09 16:21:21;;;;;;;;;;;;;;;;;;5094771;28;19912;-73
2023/09/09 16:23:47;;;;;;;;;;;;;;;;;;5093552;28;19912;-73
2023/09/09 16:26:13;;;;;;;;;;;;;;;;;;5095051;28;20361;-73
2023/09/09 16:28:39;;;;;;;;;;;;;;;;;;5094332;28;20298;-74
2023/09/09 16:31:05;;;;;;;;;;;;;;;;;;5075829;28;20280;-73
2023/09/09 16:33:34;;;;;;;;;;;;;;;;;;5094583;28;19912;-74
2023/09/09 16:36:00;;;;;;;;;;;;;;;;;;5076143;28;19916;-73
2023/09/09 16:38:26;;;;;;;;;;;;;;;;;;5094047;28;20059;-74
2023/09/09 16:40:53;;;;;;;;;;;;;;;;;;5094302;28;19908;-74
2023/09/09 16:43:19;;;;;;;;;;;;;;;;;;5093901;28;19916;-73
2023/09/09 16:45:45;;;;;;;;;;;;;;;;;;5094260;28;19908;-74
2023/09/09 16:48:11;;;;;;;;;;;;;;;;;;5094237;28;19908;-73
2023/09/09 16:50:37;;;;;;;;;;;;;;;;;;5093866;28;20383;-73
2023/09/09 16:53:03;;;;;;;;;;;;;;;;;;5094027;28;19912;-73
2023/09/09 16:55:29;;;;;;;;;;;;;;;;;;5094248;28;20376;-73
2023/09/09 16:57:55;;;;;;;;;;;;;;;;;;5075631;28;19916;-73
2023/09/09 17:00:21;;;;;;;;;;;;;;;;;;5094433;28;19908;-72
2023/09/09 17:02:47;;;;;;;;;;;;;;;;;;5094039;28;20260;-73
2023/09/09 17:05:13;;;;;;;;;;;;;;;;;;5075530;28;20283;-73
2023/09/09 17:07:39;;;;;;;;;;;;;;;;;;5093954;28;19909;-73
2023/09/09 17:10:05;;;;;;;;;;;;;;;;;;5093913;28;19915;-73
2023/09/09 17:12:31;;;;;;;;;;;;;;;;;;5093560;28;19908;-73
2023/09/09 17:14:57;;;;;;;;;;;;;;;;;;5093703;28;19920;-73
2023/09/09 17:17:23;;;;;;;;;;;;;;;;;;5093773;28;19909;-73
2023/09/09 17:19:49;;;;;;;;;;;;;;;;;;5093525;28;19991;-73
2023/09/09 17:22:15;;;;;;;;;;;;;;;;;;5093779;28;19909;-72
2023/09/09 17:24:41;;;;;;;;;;;;;;;;;;5093776;28;20086;-72
2023/09/09 17:29:01;;;;;;;;;;;;;;;;;;5111779;27;19916;-74
2023/09/09 17:31:27;;;;;;;;;;;;;;;;;;5111713;28;20011;-73
2023/09/09 17:33:53;;;;;;;;;;;;;;;;;;5109922;28;19912;-74
2023/09/09 17:36:19;;;;;;;;;;;;;;;;;;5111622;28;19908;-74
2023/09/09 17:38:45;;;;;;;;;;;;;;;;;;5111635;28;19961;-74
2023/09/09 17:41:11;;;;;;;;;;;;;;;;;;5111149;28;19912;-74
2023/09/09 17:44:31;;;;;;;;;;;;;;;;;;5092064;27;19923;-72
2023/09/09 17:46:57;;;;;;;;;;;;;;;;;;5089743;28;20430;-73
2023/09/09 17:49:25;;;;;;;;;;;;;;;;;;5089968;28;19915;-73
2023/09/09 17:51:51;;;;;;;;;;;;;;;;;;5091392;28;20428;-73
2023/09/09 17:54:17;;;;;;;;;;;;;;;;;;5090981;28;19991;-72
2023/09/09 17:56:43;;;;;;;;;;;;;;;;;;5091137;28;19985;-72
2023/09/09 18:00:24;;;;;;;;;;;;;;;;;;5091999;27;19923;-72
2023/09/09 18:02:50;;;;;;;;;;;;;;;;;;5089818;28;20011;-73
2023/09/09 18:06:24;;;;;;;;;;;;;;;;;;5111863;27;20380;-73
2023/09/09 18:09:21;;;;;;;;;;;;;;;;;;5091320;27;19916;-74
2023/09/09 18:11:46;;;;;;;;;;;;;;;;;;5091312;28;19999;-72
2023/09/09 18:14:12;;;;;;;;;;;;;;;;;;5091145;28;19909;-72
2023/09/09 18:16:38;;;;;;;;;;;;;;;;;;5090868;28;19966;-72
2023/09/09 18:19:04;;;;;;;;;;;;;;;;;;5089842;28;19914;-73
2023/09/09 18:21:30;;;;;;;;;;;;;;;;;;5091201;28;19966;-73
2023/09/09 18:23:56;;;;;;;;;;;;;;;;;;5090702;28;19917;-72
2023/09/09 18:26:23;;;;;;;;;;;;;;;;;;5091003;28;19915;-72
2023/09/09 18:28:49;;;;;;;;;;;;;;;;;;5090694;28;19960;-72
2023/09/09 18:31:15;;;;;;;;;;;;;;;;;;5090992;28;19909;-73
2023/09/09 18:33:41;;;;;;;;;;;;;;;;;;5090908;28;19916;-72
2023/09/09 18:36:07;;;;;;;;;;;;;;;;;;5090473;28;19913;-74
2023/09/09 18:39:27;;;;;;;;;;;;;;;;;;5091912;27;19916;-73
2023/09/09 18:41:53;;;;;;;;;;;;;;;;;;5090081;28;20452;-73
2023/09/09 18:45:04;;;;;;;;;;;;;;;;;;5111419;27;19916;-73
2023/09/09 18:47:30;;;;;;;;;;;;;;;;;;5111695;28;19912;-73
2023/09/09 18:49:57;;;;;;;;;;;;;;;;;;5111316;28;19908;-73
2023/09/09 18:52:23;;;;;;;;;;;;;;;;;;5110297;28;19908;-73
2023/09/09 18:54:49;;;;;;;;;;;;;;;;;;5111530;28;19909;-73
2023/09/09 18:57:16;;;;;;;;;;;;;;;;;;5111058;28;20265;-73
2023/09/09 19:04:10;;;;;;;;;;;;;;;;;;5091271;27;20368;-73
2023/09/09 19:08:46;;;;;;;;;;;;;;;;;;5153470;27;19994;-74
2023/09/09 19:11:13;;;;;;;;;;;;;;;;;;5152372;27;19951;-72
2023/09/09 19:13:39;;;;;;;;;;;;;;;;;;5152871;27;19907;-72
2023/09/09 19:16:05;;;;;;;;;;;;;;;;;;5153280;27;20005;-73
2023/09/09 19:18:32;;;;;;;;;;;;;;;;;;5133777;27;19907;-74